createdAt,value
2018-07-19T00:01:13.923Z,96.30
2018-07-19T00:03:42.306Z,96.50
2018-07-19T00:11:06.905Z,97.80
2018-07-19T00:13:35.342Z,97.90
2018-07-19T00:16:03.709Z,98.30
2018-07-19T00:18:32.065Z,98.60
2018-07-19T00:21:00.462Z,99.10
2018-07-19T00:23:28.819Z,99.00
2018-07-19T00:25:58.012Z,99.10
2018-07-19T00:30:54.493Z,99.10
2018-07-19T00:33:23.100Z,99.00
2018-07-19T00:35:51.804Z,99.20
2018-07-19T00:38:20.202Z,98.90
2018-07-19T00:45:44.689Z,99.00
2018-07-19T00:48:13.130Z,98.90
2018-07-19T00:50:41.445Z,98.90
2018-07-19T00:53:09.841Z,98.60
2018-07-19T00:55:38.172Z,98.40
2018-07-19T00:58:06.524Z,97.20
2018-07-19T01:00:34.870Z,97.90
2018-07-19T01:03:03.344Z,98.00
2018-07-19T01:05:31.698Z,98.10
2018-07-19T01:08:00.044Z,98.00
2018-07-19T01:12:56.451Z,98.40
2018-07-19T01:15:25.860Z,98.60
2018-07-19T01:17:55.511Z,98.80
2018-07-19T01:20:23.916Z,99.00
2018-07-19T01:22:52.306Z,99.20
2018-07-19T01:25:20.673Z,99.30
2018-07-19T01:27:48.985Z,99.80
2018-07-19T01:30:17.320Z,99.80
2018-07-19T01:32:45.646Z,99.90
2018-07-19T01:35:15.564Z,99.90
2018-07-19T01:37:43.993Z,99.90
2018-07-19T01:40:12.327Z,99.90
2018-07-19T01:45:10.689Z,99.90
2018-07-19T01:47:39.217Z,99.90
2018-07-19T01:50:08.390Z,99.90
2018-07-19T01:52:36.752Z,99.90
2018-07-19T01:55:05.393Z,99.90
2018-07-19T01:57:33.805Z,99.90
2018-07-19T02:00:02.179Z,99.90
2018-07-19T02:02:30.485Z,99.90
2018-07-19T02:04:58.788Z,99.90
2018-07-19T02:07:27.165Z,99.90
2018-07-19T02:09:55.592Z,99.90
2018-07-19T02:12:23.934Z,99.90
2018-07-19T02:14:52.365Z,99.90
2018-07-19T02:17:20.697Z,99.90
2018-07-19T02:19:49.082Z,99.90
2018-07-19T02:22:17.405Z,99.90
2018-07-19T02:24:45.734Z,99.90
2018-07-19T02:27:14.636Z,99.90
2018-07-19T02:29:43.003Z,99.90
2018-07-19T02:32:11.386Z,99.90
2018-07-19T02:34:39.788Z,99.90
2018-07-19T02:37:08.123Z,99.90
2018-07-19T02:39:36.470Z,99.90
2018-07-19T02:42:04.857Z,99.90
2018-07-19T02:44:33.767Z,99.90
2018-07-19T02:47:02.149Z,99.90
2018-07-19T02:49:30.553Z,99.90
2018-07-19T02:51:58.923Z,99.90
2018-07-19T02:54:27.261Z,99.90
2018-07-19T02:56:55.609Z,99.90
2018-07-19T02:59:23.982Z,99.90
2018-07-19T03:01:52.336Z,99.90
2018-07-19T03:04:20.669Z,99.90
2018-07-19T03:06:48.978Z,99.90
2018-07-19T03:09:17.303Z,99.90
2018-07-19T03:11:45.647Z,99.90
2018-07-19T03:14:13.957Z,99.90
2018-07-19T03:16:42.283Z,99.90
2018-07-19T03:19:10.665Z,99.90
2018-07-19T03:21:39.036Z,99.90
2018-07-19T03:24:07.378Z,99.90
2018-07-19T03:26:35.764Z,99.90
2018-07-19T03:29:04.141Z,99.90
2018-07-19T03:31:32.502Z,99.90
2018-07-19T03:34:00.849Z,99.90
2018-07-19T03:36:29.200Z,99.90
2018-07-19T03:38:57.532Z,99.90
2018-07-19T03:41:25.879Z,99.90
2018-07-19T03:43:54.202Z,99.90
2018-07-19T03:46:22.521Z,99.90
2018-07-19T03:48:50.840Z,99.90
2018-07-19T03:51:19.187Z,99.90
2018-07-19T03:53:47.538Z,99.90
2018-07-19T03:56:15.906Z,99.90
2018-07-19T03:58:44.231Z,99.90
2018-07-19T04:01:12.563Z,99.90
2018-07-19T04:03:40.984Z,99.90
2018-07-19T04:06:09.377Z,99.90
2018-07-19T04:08:37.797Z,99.90
2018-07-19T04:11:06.246Z,99.90
2018-07-19T04:13:34.638Z,99.90
2018-07-19T04:16:03.034Z,99.90
2018-07-19T04:18:31.426Z,99.90
2018-07-19T04:20:59.787Z,99.90
2018-07-19T04:23:28.188Z,99.90
2018-07-19T04:28:24.606Z,99.90
2018-07-19T04:30:52.957Z,99.90
2018-07-19T04:33:21.330Z,99.90
2018-07-19T04:35:49.710Z,99.90
2018-07-19T04:38:18.098Z,99.90
2018-07-19T04:40:46.450Z,99.90
2018-07-19T04:43:14.816Z,99.90
2018-07-19T04:45:43.215Z,99.90
2018-07-19T04:48:11.802Z,99.90
2018-07-19T04:50:40.307Z,99.90
2018-07-19T04:53:08.644Z,99.90
2018-07-19T04:55:37.017Z,99.90
2018-07-19T04:58:05.516Z,99.90
2018-07-19T05:00:33.947Z,99.90
2018-07-19T05:03:02.285Z,99.90
2018-07-19T05:05:30.649Z,99.90
2018-07-19T05:07:59.035Z,99.90
2018-07-19T05:10:27.395Z,99.90
2018-07-19T05:15:23.854Z,99.90
2018-07-19T05:17:52.362Z,99.90
2018-07-19T05:20:20.713Z,99.90
2018-07-19T05:22:49.067Z,99.90
2018-07-19T05:25:17.454Z,99.90
2018-07-19T05:27:45.837Z,99.90
2018-07-19T05:30:14.188Z,99.90
2018-07-19T05:32:42.550Z,99.90
2018-07-19T05:35:10.957Z,99.90
2018-07-19T05:37:39.411Z,99.90
2018-07-19T05:40:07.790Z,99.90
2018-07-19T05:42:36.157Z,99.90
2018-07-19T05:45:04.662Z,99.80
2018-07-19T05:47:33.056Z,99.30
2018-07-19T05:50:01.452Z,98.60
2018-07-19T05:52:29.837Z,98.40
2018-07-19T05:54:58.233Z,97.50
2018-07-19T05:57:26.645Z,97.60
2018-07-19T05:59:55.025Z,96.90
2018-07-19T06:02:23.408Z,96.90
2018-07-19T06:04:51.765Z,96.60
2018-07-19T06:07:20.100Z,96.30
2018-07-19T06:09:48.448Z,95.80
2018-07-19T06:12:17.743Z,94.80
2018-07-19T06:14:46.112Z,95.20
2018-07-19T06:17:14.576Z,94.80
2018-07-19T06:19:42.943Z,94.80
2018-07-19T06:22:11.346Z,94.30
2018-07-19T06:24:39.815Z,94.10
2018-07-19T06:27:08.223Z,94.20
2018-07-19T06:29:36.581Z,93.30
2018-07-19T06:32:05.012Z,93.60
2018-07-19T06:34:33.379Z,92.60
2018-07-19T06:37:01.852Z,92.70
2018-07-19T06:39:30.340Z,92.00
2018-07-19T06:41:58.745Z,90.70
2018-07-19T06:44:27.672Z,91.10
2018-07-19T06:46:56.265Z,90.60
2018-07-19T06:49:24.635Z,88.90
2018-07-19T06:51:52.975Z,87.60
2018-07-19T06:54:21.290Z,87.50
2018-07-19T06:56:49.642Z,86.20
2018-07-19T06:59:17.958Z,83.60
2018-07-19T07:01:46.370Z,83.50
2018-07-19T07:04:14.717Z,82.10
2018-07-19T07:06:43.081Z,82.20
2018-07-19T07:09:12.364Z,82.50
2018-07-19T07:11:41.089Z,78.50
2018-07-19T07:14:09.519Z,75.60
2018-07-19T07:16:37.925Z,71.70
2018-07-19T07:19:06.314Z,71.70
2018-07-19T07:21:34.704Z,72.90
2018-07-19T07:24:03.093Z,68.50
2018-07-19T07:26:31.514Z,67.90
2018-07-19T07:28:59.926Z,67.30
2018-07-19T07:31:28.331Z,68.30
2018-07-19T07:33:56.718Z,69.30
2018-07-19T07:36:25.065Z,70.20
2018-07-19T07:38:53.411Z,73.60
2018-07-19T07:41:21.803Z,70.10
2018-07-19T07:43:50.208Z,71.20
2018-07-19T07:46:18.649Z,70.40
2018-07-19T07:48:47.013Z,68.70
2018-07-19T07:51:15.386Z,67.70
2018-07-19T07:53:43.740Z,68.80
2018-07-19T07:56:12.104Z,70.80
2018-07-19T07:58:40.452Z,69.50
2018-07-19T08:01:08.796Z,70.20
2018-07-19T08:03:37.109Z,70.60
2018-07-19T08:06:05.489Z,68.80
2018-07-19T08:08:33.869Z,68.30
2018-07-19T08:11:02.246Z,72.40
2018-07-19T08:13:30.596Z,66.40
2018-07-19T08:15:58.983Z,69.50
2018-07-19T08:18:27.369Z,67.40
2018-07-19T08:20:55.765Z,65.00
2018-07-19T08:23:24.191Z,65.00
2018-07-19T08:25:52.524Z,66.10
2018-07-19T08:28:20.892Z,64.20
2018-07-19T08:30:49.252Z,66.40
2018-07-19T08:33:18.448Z,64.70
2018-07-19T08:35:46.860Z,65.00
2018-07-19T08:38:15.128Z,66.00
2018-07-19T08:40:43.475Z,68.40
2018-07-19T08:43:11.833Z,66.50
2018-07-19T08:45:40.162Z,65.00
2018-07-19T08:48:08.629Z,62.40
2018-07-19T08:50:36.985Z,63.70
2018-07-19T08:55:33.476Z,67.10
2018-07-19T08:58:01.828Z,65.80
2018-07-19T09:00:30.175Z,67.30
2018-07-19T09:02:58.526Z,66.00
2018-07-19T09:05:26.888Z,63.30
2018-07-19T09:07:55.228Z,63.80
2018-07-19T09:10:23.608Z,65.40
2018-07-19T09:12:51.978Z,66.00
2018-07-19T09:15:20.336Z,63.60
2018-07-19T09:17:48.930Z,64.90
2018-07-19T09:20:17.284Z,66.80
2018-07-19T09:22:45.699Z,67.60
2018-07-19T09:25:14.079Z,70.30
2018-07-19T09:27:42.467Z,67.60
2018-07-19T09:30:10.880Z,68.90
2018-07-19T09:32:39.251Z,68.40
2018-07-19T09:35:07.602Z,67.30
2018-07-19T09:37:35.965Z,68.40
2018-07-19T09:40:04.442Z,68.10
2018-07-19T09:42:32.859Z,67.30
2018-07-19T09:45:01.291Z,63.50
2018-07-19T09:47:29.690Z,67.40
2018-07-19T09:49:58.078Z,65.40
2018-07-19T09:54:57.286Z,66.50
2018-07-19T09:59:53.952Z,66.30
2018-07-19T10:02:22.412Z,67.40
2018-07-19T10:04:50.786Z,67.60
2018-07-19T10:07:19.280Z,66.70
2018-07-19T10:12:15.884Z,64.90
2018-07-19T10:14:44.257Z,64.10
2018-07-19T10:17:12.678Z,64.30
2018-07-19T10:19:41.074Z,67.50
2018-07-19T10:22:09.816Z,66.90
2018-07-19T10:24:38.187Z,67.40
2018-07-19T10:27:06.649Z,71.40
2018-07-19T10:29:35.069Z,71.00
2018-07-19T10:32:03.512Z,71.30
2018-07-19T10:34:32.081Z,69.70
2018-07-19T10:37:00.588Z,70.50
2018-07-19T10:39:28.996Z,69.10
2018-07-19T10:41:57.427Z,66.80
2018-07-19T10:44:25.779Z,67.80
2018-07-19T10:46:54.129Z,68.90
2018-07-19T10:49:22.499Z,67.20
2018-07-19T10:51:50.893Z,65.70
2018-07-19T10:54:19.263Z,61.10
2018-07-19T10:56:47.617Z,60.80
2018-07-19T10:59:15.945Z,58.80
2018-07-19T11:01:44.386Z,59.00
2018-07-19T11:04:12.768Z,60.40
2018-07-19T11:06:41.113Z,60.50
2018-07-19T11:09:10.050Z,59.10
2018-07-19T11:11:38.401Z,59.30
2018-07-19T11:14:06.758Z,63.50
2018-07-19T11:16:35.166Z,59.00
2018-07-19T11:19:03.464Z,58.10
2018-07-19T11:21:31.808Z,58.50
2018-07-19T11:24:00.187Z,59.70
2018-07-19T11:26:28.500Z,61.90
2018-07-19T11:28:56.851Z,64.10
2018-07-19T11:31:25.211Z,61.40
2018-07-19T11:33:53.608Z,63.70
2018-07-19T11:36:21.978Z,64.90
2018-07-19T11:38:50.316Z,60.70
2018-07-19T11:43:46.813Z,63.50
2018-07-19T11:46:15.193Z,63.60
2018-07-19T11:48:43.548Z,62.50
2018-07-19T11:51:11.889Z,59.60
2018-07-19T11:53:40.275Z,57.50
2018-07-19T11:56:08.634Z,55.30
2018-07-19T11:58:36.942Z,56.90
2018-07-19T12:01:05.357Z,58.10
2018-07-19T12:03:33.727Z,60.20
2018-07-19T12:06:02.102Z,57.80
2018-07-19T12:08:30.484Z,59.20
2018-07-19T12:10:58.895Z,59.70
2018-07-19T12:13:27.345Z,57.60
2018-07-19T12:15:55.732Z,59.40
2018-07-19T12:18:24.086Z,58.10
2018-07-19T12:20:52.546Z,55.80
2018-07-19T12:23:21.066Z,56.60
2018-07-19T12:25:49.449Z,57.00
2018-07-19T12:28:17.774Z,58.00
2018-07-19T12:30:46.155Z,57.80
2018-07-19T12:33:14.499Z,56.40
2018-07-19T12:35:42.849Z,53.90
2018-07-19T12:38:11.195Z,55.80
2018-07-19T12:40:39.629Z,52.80
2018-07-19T12:43:08.035Z,56.10
2018-07-19T12:45:36.475Z,57.50
2018-07-19T12:48:04.807Z,55.90
2018-07-19T12:50:33.174Z,56.80
2018-07-19T12:53:01.515Z,50.10
2018-07-19T12:55:29.879Z,52.50
2018-07-19T12:57:58.511Z,48.80
2018-07-19T13:00:26.890Z,51.30
2018-07-19T13:02:55.255Z,52.10
2018-07-19T13:05:23.972Z,52.70
2018-07-19T13:07:52.325Z,53.70
2018-07-19T13:10:20.731Z,52.90
2018-07-19T13:12:49.264Z,52.90
2018-07-19T13:15:17.694Z,49.10
2018-07-19T13:17:46.120Z,52.30
2018-07-19T13:20:14.493Z,52.60
2018-07-19T13:22:42.860Z,54.80
2018-07-19T13:25:11.251Z,54.70
2018-07-19T13:27:39.636Z,50.40
2018-07-19T13:30:08.016Z,51.10
2018-07-19T13:32:36.466Z,52.80
2018-07-19T13:35:05.345Z,54.60
2018-07-19T13:40:02.204Z,51.20
2018-07-19T13:42:30.606Z,50.40
2018-07-19T13:44:58.982Z,49.70
2018-07-19T13:47:27.379Z,50.10
2018-07-19T13:49:55.778Z,50.90
2018-07-19T13:52:35.476Z,55.10
2018-07-19T13:55:03.836Z,52.40
2018-07-19T13:57:32.200Z,52.30
2018-07-19T14:00:00.657Z,51.30
2018-07-19T14:02:29.041Z,50.50
2018-07-19T14:04:57.449Z,49.10
2018-07-19T14:07:25.870Z,48.40
2018-07-19T14:09:54.269Z,47.60
2018-07-19T14:12:22.665Z,48.20
2018-07-19T14:14:51.036Z,48.20
2018-07-19T14:17:19.448Z,47.50
2018-07-19T14:19:47.798Z,47.50
2018-07-19T14:22:16.287Z,47.80
2018-07-19T14:24:44.689Z,48.30
2018-07-19T14:27:13.086Z,46.60
2018-07-19T14:29:41.433Z,47.00
2018-07-19T14:32:10.039Z,46.90
2018-07-19T14:34:38.429Z,44.80
2018-07-19T14:37:06.805Z,45.40
2018-07-19T14:39:35.205Z,44.40
2018-07-19T14:42:03.593Z,45.40
2018-07-19T14:44:31.964Z,44.00
2018-07-19T14:47:00.477Z,44.50
2018-07-19T14:49:28.848Z,43.80
2018-07-19T14:51:57.264Z,45.20
2018-07-19T14:54:25.631Z,45.30
2018-07-19T14:56:53.985Z,45.20
2018-07-19T14:59:22.483Z,44.70
2018-07-19T15:01:50.837Z,47.00
2018-07-19T15:04:19.217Z,47.00
2018-07-19T15:06:47.603Z,45.50
2018-07-19T15:09:15.996Z,43.00
2018-07-19T15:11:44.398Z,42.90
2018-07-19T15:14:12.705Z,43.60
2018-07-19T15:16:41.103Z,44.40
2018-07-19T15:19:09.460Z,43.30
2018-07-19T15:21:37.872Z,42.70
2018-07-19T15:24:06.390Z,43.00
2018-07-19T15:26:34.718Z,43.10
2018-07-19T15:29:03.089Z,42.50
2018-07-19T15:31:31.443Z,43.60
2018-07-19T15:33:59.889Z,42.30
2018-07-19T15:36:28.272Z,44.10
2018-07-19T15:38:56.583Z,43.20
2018-07-19T15:41:24.933Z,44.10
2018-07-19T15:43:53.293Z,43.00
2018-07-19T15:46:21.670Z,44.20
2018-07-19T15:48:50.085Z,43.70
2018-07-19T15:51:18.469Z,45.00
2018-07-19T15:53:46.893Z,45.80
2018-07-19T15:56:15.305Z,46.40
2018-07-19T15:58:43.701Z,45.00
2018-07-19T16:01:12.215Z,44.30
2018-07-19T16:03:41.296Z,44.70
2018-07-19T16:06:09.749Z,44.60
2018-07-19T16:08:38.129Z,43.70
2018-07-19T16:11:06.595Z,43.90
2018-07-19T16:13:34.966Z,45.40
2018-07-19T16:16:03.329Z,47.40
2018-07-19T16:18:31.747Z,46.80
2018-07-19T16:21:00.441Z,46.20
2018-07-19T16:23:29.656Z,46.60
2018-07-19T16:25:58.085Z,46.90
2018-07-19T16:28:26.519Z,46.80
2018-07-19T16:30:54.975Z,45.10
2018-07-19T16:33:23.527Z,45.50
2018-07-19T16:35:51.930Z,46.70
2018-07-19T16:38:20.341Z,47.80
2018-07-19T16:40:49.107Z,49.10
2018-07-19T16:43:17.563Z,48.90
2018-07-19T16:45:46.477Z,50.00
2018-07-19T16:48:14.869Z,50.80
2018-07-19T16:50:43.306Z,52.30
2018-07-19T16:53:11.695Z,53.20
2018-07-19T16:55:40.139Z,55.00
2018-07-19T16:58:08.487Z,55.00
2018-07-19T17:00:36.826Z,57.40
2018-07-19T17:03:05.206Z,57.00
2018-07-19T17:05:33.581Z,55.80
2018-07-19T17:08:01.990Z,56.50
2018-07-19T17:10:30.345Z,57.20
2018-07-19T17:12:58.718Z,58.10
2018-07-19T17:15:27.187Z,59.20
2018-07-19T17:17:55.567Z,59.20
2018-07-19T17:20:23.974Z,58.70
2018-07-19T17:22:52.339Z,57.60
2018-07-19T17:25:21.035Z,56.60
2018-07-19T17:27:49.412Z,56.10
2018-07-19T17:30:17.798Z,56.60
2018-07-19T17:32:46.214Z,57.70
2018-07-19T17:35:14.629Z,56.40
2018-07-19T17:37:43.079Z,57.70
2018-07-19T17:40:11.656Z,58.10
2018-07-19T17:42:40.023Z,58.90
2018-07-19T17:45:08.497Z,58.70
2018-07-19T17:47:36.876Z,59.00
2018-07-19T17:50:05.360Z,56.80
2018-07-19T17:52:33.745Z,58.20
2018-07-19T17:55:02.107Z,59.50
2018-07-19T17:57:30.482Z,60.80
2018-07-19T17:59:58.827Z,60.60
2018-07-19T18:02:27.182Z,59.20
2018-07-19T18:04:55.593Z,60.20
2018-07-19T18:07:23.937Z,61.20
2018-07-19T18:09:52.342Z,61.10
2018-07-19T18:12:20.703Z,61.00
2018-07-19T18:14:49.054Z,61.90
2018-07-19T18:17:17.457Z,61.50
2018-07-19T18:19:45.786Z,60.80
2018-07-19T18:24:42.206Z,61.30
2018-07-19T18:27:10.537Z,60.70
2018-07-19T18:29:38.872Z,60.20
2018-07-19T18:32:07.287Z,60.80
2018-07-19T18:37:03.833Z,62.20
2018-07-19T18:39:32.257Z,62.80
2018-07-19T18:42:00.699Z,63.30
2018-07-19T18:44:29.064Z,63.60
2018-07-19T18:46:57.480Z,66.20
2018-07-19T18:49:25.892Z,65.00
2018-07-19T18:51:54.275Z,64.60
2018-07-19T18:54:22.644Z,64.90
2018-07-19T18:56:51.070Z,65.80
2018-07-19T18:59:19.497Z,66.50
2018-07-19T19:04:15.949Z,67.00
2018-07-19T19:06:44.465Z,67.80
2018-07-19T19:09:12.798Z,67.10
2018-07-19T19:11:41.239Z,67.30
2018-07-19T19:14:09.812Z,66.40
2018-07-19T19:16:38.188Z,65.80
2018-07-19T19:19:06.974Z,66.00
2018-07-19T19:21:35.456Z,66.80
2018-07-19T19:24:03.890Z,67.40
2018-07-19T19:29:00.647Z,67.80
2018-07-19T19:31:29.225Z,67.40
2018-07-19T19:33:57.653Z,67.20
2018-07-19T19:36:26.097Z,67.10
2018-07-19T19:38:54.502Z,66.80
2018-07-19T19:41:22.840Z,66.60
2018-07-19T19:43:51.255Z,66.60
2018-07-19T19:46:19.833Z,66.80
2018-07-19T19:48:48.241Z,66.70
2018-07-19T19:51:16.629Z,66.80
2018-07-19T19:53:44.995Z,67.10
2018-07-19T19:56:13.407Z,67.20
2018-07-19T19:58:41.868Z,67.70
2018-07-19T20:01:10.279Z,67.60
2018-07-19T20:03:38.642Z,67.50
2018-07-19T20:06:07.000Z,67.80
2018-07-19T20:08:35.450Z,67.60
2018-07-19T20:11:03.795Z,67.70
2018-07-19T20:13:32.238Z,67.80
2018-07-19T20:16:00.701Z,68.20
2018-07-19T20:18:29.308Z,69.40
2018-07-19T20:20:58.025Z,69.50
2018-07-19T20:23:26.788Z,70.80
2018-07-19T20:25:55.459Z,72.10
2018-07-19T20:28:23.920Z,73.70
2018-07-19T20:30:52.393Z,74.40
2018-07-19T20:33:20.834Z,75.40
2018-07-19T20:35:49.174Z,77.60
2018-07-19T20:38:17.604Z,78.20
2018-07-19T20:40:46.007Z,76.70
2018-07-19T20:43:14.359Z,76.70
2018-07-19T20:45:42.767Z,79.10
2018-07-19T20:48:11.099Z,80.50
2018-07-19T20:50:39.555Z,80.70
2018-07-19T20:53:08.006Z,81.70
2018-07-19T20:55:36.383Z,82.10
2018-07-19T20:58:04.787Z,81.80
2018-07-19T21:00:33.174Z,82.40
2018-07-19T21:03:01.515Z,82.90
2018-07-19T21:05:29.872Z,83.10
2018-07-19T21:07:58.223Z,83.20
2018-07-19T21:10:26.604Z,83.30
2018-07-19T21:12:54.995Z,83.70
2018-07-19T21:15:23.353Z,83.70
2018-07-19T21:17:51.717Z,84.30
2018-07-19T21:22:48.227Z,85.90
2018-07-19T21:25:16.585Z,85.80
2018-07-19T21:27:44.961Z,86.20
2018-07-19T21:30:13.316Z,86.20
2018-07-19T21:37:37.859Z,85.90
2018-07-19T21:40:06.467Z,84.70
2018-07-19T21:42:34.812Z,84.80
2018-07-19T21:45:03.144Z,84.50
2018-07-19T21:47:31.500Z,86.10
2018-07-19T21:49:59.881Z,85.00
2018-07-19T21:52:28.241Z,87.40
2018-07-19T21:54:56.573Z,87.90
2018-07-19T21:57:24.924Z,89.50
2018-07-19T21:59:53.313Z,89.50
2018-07-19T22:02:21.667Z,90.40
2018-07-19T22:04:50.053Z,90.30
2018-07-19T22:07:18.443Z,90.50
2018-07-19T22:09:46.772Z,90.70
2018-07-19T22:12:15.103Z,90.60
2018-07-19T22:14:43.451Z,90.60
2018-07-19T22:17:11.916Z,90.80
2018-07-19T22:19:40.320Z,90.80
2018-07-19T22:22:08.664Z,90.90
2018-07-19T22:24:37.024Z,91.10
2018-07-19T22:27:05.357Z,91.10
2018-07-19T22:29:33.730Z,91.20
2018-07-19T22:32:02.205Z,91.80
2018-07-19T22:34:30.640Z,91.80
2018-07-19T22:36:59.010Z,91.70
2018-07-19T22:39:27.367Z,91.70
2018-07-19T22:41:55.712Z,91.80
2018-07-19T22:44:24.057Z,92.30
2018-07-19T22:51:48.589Z,93.00
2018-07-19T22:54:17.013Z,93.40
2018-07-19T22:56:45.329Z,93.70
2018-07-19T22:59:13.711Z,94.00
2018-07-19T23:01:42.080Z,93.90
2018-07-19T23:04:10.401Z,94.00
2018-07-19T23:06:38.744Z,93.90
2018-07-19T23:09:07.704Z,93.80
2018-07-19T23:11:36.088Z,94.40
2018-07-19T23:14:04.515Z,94.40
2018-07-19T23:16:32.875Z,94.40
2018-07-19T23:19:01.231Z,94.50
2018-07-19T23:21:29.582Z,94.60
2018-07-19T23:23:57.939Z,94.70
2018-07-19T23:26:26.404Z,94.90
2018-07-19T23:28:54.804Z,94.90
2018-07-19T23:31:23.186Z,95.10
2018-07-19T23:33:51.557Z,95.30
2018-07-19T23:36:23.313Z,95.20
2018-07-19T23:38:54.714Z,94.90
2018-07-19T23:41:32.393Z,94.80
2018-07-19T23:44:04.817Z,95.10
2018-07-19T23:46:39.117Z,95.20
2018-07-19T23:49:08.249Z,95.50
2018-07-19T23:51:37.998Z,95.20
2018-07-19T23:54:06.398Z,95.30
2018-07-19T23:56:35.101Z,95.70
2018-07-19T23:59:03.746Z,95.60
